createdAt,value
2019-05-01T00:01:53.496Z,10.50
2019-05-01T00:04:28.459Z,8.60
2019-05-01T00:07:00.466Z,8.07
2019-05-01T00:09:31.948Z,9.27
2019-05-01T00:12:04.035Z,8.17
2019-05-01T00:14:34.999Z,8.20
2019-05-01T00:17:05.512Z,8.87
2019-05-01T00:19:36.236Z,8.90
2019-05-01T00:22:06.618Z,8.70
2019-05-01T00:24:37.119Z,8.00
2019-05-01T00:27:07.829Z,8.87
2019-05-01T00:29:38.213Z,8.10
2019-05-01T00:32:08.593Z,8.03
2019-05-01T00:34:39.392Z,8.10
2019-05-01T00:37:09.758Z,7.53
2019-05-01T00:39:40.887Z,7.30
2019-05-01T00:42:11.263Z,6.90
2019-05-01T00:44:42.029Z,8.03
2019-05-01T00:47:12.387Z,7.70
2019-05-01T00:49:43.121Z,7.10
2019-05-01T00:52:14.200Z,7.07
2019-05-01T00:54:48.565Z,7.10
2019-05-01T00:57:20.594Z,7.23
2019-05-01T01:00:01.565Z,7.80
2019-05-01T01:02:42.318Z,7.30
2019-05-01T01:05:13.442Z,7.30
2019-05-01T01:07:44.079Z,8.10
2019-05-01T01:10:14.816Z,7.90
2019-05-01T01:12:46.005Z,7.63
2019-05-01T01:15:16.551Z,8.13
2019-05-01T01:17:46.951Z,8.20
2019-05-01T01:20:18.672Z,7.33
2019-05-01T01:22:49.478Z,7.90
2019-05-01T01:25:20.163Z,9.20
2019-05-01T01:27:51.418Z,9.20
2019-05-01T01:30:21.790Z,8.13
2019-05-01T01:32:52.209Z,8.30
2019-05-01T01:35:25.486Z,9.23
2019-05-01T01:37:55.843Z,10.00
2019-05-01T01:40:26.635Z,8.70
2019-05-01T01:42:58.708Z,10.93
2019-05-01T01:45:33.918Z,10.77
2019-05-01T01:48:11.810Z,11.70
2019-05-01T01:50:43.877Z,11.90
2019-05-01T01:53:16.354Z,12.10
2019-05-01T01:55:47.131Z,12.20
2019-05-01T01:58:17.793Z,13.77
2019-05-01T02:01:08.967Z,13.90
2019-05-01T02:03:32.968Z,13.63
2019-05-01T02:06:03.316Z,13.30
2019-05-01T02:08:33.986Z,14.80
2019-05-01T02:11:04.373Z,14.60
2019-05-01T02:13:35.094Z,14.60
2019-05-01T02:16:05.902Z,14.80
2019-05-01T02:18:36.653Z,15.63
2019-05-01T02:21:07.734Z,15.03
2019-05-01T02:23:38.419Z,15.27
2019-05-01T02:26:10.806Z,15.53
2019-05-01T02:28:46.259Z,16.93
2019-05-01T02:31:27.915Z,18.37
2019-05-01T02:33:51.780Z,16.33
2019-05-01T02:36:22.430Z,17.50
2019-05-01T02:38:53.416Z,17.30
2019-05-01T02:41:25.894Z,17.10
2019-05-01T02:44:00.783Z,17.60
2019-05-01T02:46:31.280Z,18.10
2019-05-01T02:49:11.610Z,17.23
2019-05-01T02:51:41.960Z,17.93
2019-05-01T02:54:12.715Z,20.20
2019-05-01T02:56:44.953Z,19.60
2019-05-01T02:59:15.365Z,19.77
2019-05-01T03:01:47.881Z,20.80
2019-05-01T03:04:17.859Z,21.37
2019-05-01T03:06:48.327Z,22.47
2019-05-01T03:09:40.119Z,21.23
2019-05-01T03:12:10.464Z,22.33
2019-05-01T03:14:43.490Z,21.47
2019-05-01T03:17:31.760Z,23.07
2019-05-01T03:20:03.759Z,24.53
2019-05-01T03:22:42.149Z,23.13
2019-05-01T03:25:12.620Z,23.17
2019-05-01T03:27:43.170Z,24.93
2019-05-01T03:30:13.565Z,25.50
2019-05-01T03:32:44.239Z,25.70
2019-05-01T03:35:15.223Z,26.50
2019-05-01T03:37:45.844Z,26.50
2019-05-01T03:40:16.614Z,27.47
2019-05-01T03:42:46.975Z,23.90
2019-05-01T03:45:17.754Z,26.27
2019-05-01T03:47:48.113Z,27.30
2019-05-01T03:50:19.046Z,26.37
2019-05-01T03:52:50.245Z,28.47
2019-05-01T03:55:20.643Z,28.90
2019-05-01T03:57:50.996Z,27.97
2019-05-01T04:00:34.952Z,27.20
2019-05-01T04:03:19.669Z,29.97
2019-05-01T04:05:50.034Z,28.30
2019-05-01T04:08:20.820Z,29.80
2019-05-01T04:10:51.221Z,29.93
2019-05-01T04:13:21.859Z,29.03
2019-05-01T04:15:54.078Z,29.37
2019-05-01T04:18:25.149Z,29.93
2019-05-01T04:20:55.556Z,29.67
2019-05-01T04:23:25.964Z,28.33
2019-05-01T04:25:56.378Z,31.07
2019-05-01T04:28:31.909Z,32.20
2019-05-01T04:31:19.282Z,31.70
2019-05-01T04:33:53.935Z,30.30
2019-05-01T04:36:31.978Z,31.67
2019-05-01T04:39:02.335Z,31.50
2019-05-01T04:41:33.398Z,31.83
2019-05-01T04:44:03.852Z,34.77
2019-05-01T04:46:35.151Z,32.97
2019-05-01T04:49:05.491Z,35.37
2019-05-01T04:51:36.362Z,35.20
2019-05-01T04:54:06.780Z,36.10
2019-05-01T04:56:37.574Z,35.63
2019-05-01T04:59:07.956Z,35.10
2019-05-01T05:01:52.444Z,34.60
2019-05-01T05:04:24.398Z,34.73
2019-05-01T05:06:54.825Z,32.60
2019-05-01T05:09:41.924Z,35.20
2019-05-01T05:12:14.321Z,36.27
2019-05-01T05:14:58.744Z,36.10
2019-05-01T05:17:29.475Z,33.87
2019-05-01T05:19:59.849Z,35.57
2019-05-01T05:22:30.205Z,35.50
2019-05-01T05:25:01.021Z,37.40
2019-05-01T05:27:31.761Z,41.02
2019-05-01T05:30:02.512Z,37.17
2019-05-01T05:32:33.031Z,38.67
2019-05-01T05:35:04.133Z,38.23
2019-05-01T05:37:36.752Z,37.57
2019-05-01T05:40:07.914Z,37.03
2019-05-01T05:42:38.939Z,36.03
2019-05-01T05:45:09.383Z,35.73
2019-05-01T05:47:39.759Z,36.57
2019-05-01T05:50:13.433Z,37.20
2019-05-01T05:52:48.857Z,37.83
2019-05-01T05:55:31.398Z,36.97
2019-05-01T05:58:03.773Z,37.13
2019-05-01T06:00:48.999Z,36.80
2019-05-01T06:03:37.369Z,38.50
2019-05-01T06:06:10.328Z,37.90
2019-05-01T06:08:41.611Z,42.27
2019-05-01T06:11:16.852Z,42.80
2019-05-01T06:14:05.296Z,38.97
2019-05-01T06:16:46.861Z,38.90
2019-05-01T06:19:20.440Z,40.13
2019-05-01T06:21:52.952Z,43.43
2019-05-01T06:24:25.513Z,40.57
2019-05-01T06:26:55.954Z,41.27
2019-05-01T06:29:30.973Z,40.13
2019-05-01T06:32:00.075Z,44.00
2019-05-01T06:34:30.560Z,41.20
2019-05-01T06:37:01.280Z,40.33
2019-05-01T06:39:32.186Z,43.60
2019-05-01T06:42:02.569Z,43.20
2019-05-01T06:44:43.908Z,42.00
2019-05-01T06:47:27.661Z,43.63
2019-05-01T06:50:01.167Z,46.37
2019-05-01T06:52:32.588Z,44.77
2019-05-01T06:55:03.476Z,43.73
2019-05-01T06:57:38.494Z,45.57
2019-05-01T07:00:11.503Z,43.00
2019-05-01T07:02:42.871Z,43.17
2019-05-01T07:05:14.713Z,41.53
2019-05-01T07:07:48.143Z,43.50
2019-05-01T07:10:30.697Z,43.63
2019-05-01T07:12:53.144Z,45.80
2019-05-01T07:15:26.801Z,44.93
2019-05-01T07:17:56.059Z,45.80
2019-05-01T07:20:34.143Z,45.47
2019-05-01T07:23:06.235Z,45.57
2019-05-01T07:25:39.489Z,44.20
2019-05-01T07:28:09.109Z,44.90
2019-05-01T07:30:49.987Z,43.50
2019-05-01T07:33:20.493Z,47.70
2019-05-01T07:35:53.724Z,49.90
2019-05-01T07:38:23.043Z,46.57
2019-05-01T07:40:53.465Z,47.80
2019-05-01T07:43:25.780Z,46.20
2019-05-01T07:46:02.356Z,48.10
2019-05-01T07:48:41.458Z,48.10
2019-05-01T07:51:12.641Z,47.83
2019-05-01T07:53:43.605Z,46.80
2019-05-01T07:56:17.081Z,47.13
2019-05-01T07:58:47.505Z,47.03
2019-05-01T08:01:23.101Z,44.97
2019-05-01T08:03:53.891Z,45.37
2019-05-01T08:06:24.371Z,45.17
2019-05-01T08:08:55.202Z,48.50
2019-05-01T08:11:25.627Z,47.67
2019-05-01T08:14:07.094Z,46.30
2019-05-01T08:16:47.964Z,45.83
2019-05-01T08:19:20.098Z,47.67
2019-05-01T08:22:08.155Z,48.53
2019-05-01T08:24:38.689Z,45.90
2019-05-01T08:27:11.045Z,46.07
2019-05-01T08:29:45.779Z,46.63
2019-05-01T08:32:38.934Z,47.67
2019-05-01T08:35:12.523Z,44.90
2019-05-01T08:37:43.154Z,44.60
2019-05-01T08:40:16.009Z,45.90
2019-05-01T08:42:45.816Z,44.53
2019-05-01T08:45:42.523Z,43.63
2019-05-01T08:48:17.816Z,45.97
2019-05-01T08:50:48.220Z,44.03
2019-05-01T08:53:22.153Z,43.80
2019-05-01T08:55:51.550Z,43.60
2019-05-01T08:58:22.275Z,44.00
2019-05-01T09:00:52.691Z,42.27
2019-05-01T09:03:23.200Z,43.00
2019-05-01T09:05:57.546Z,42.20
2019-05-01T09:08:31.968Z,41.17
2019-05-01T09:11:02.303Z,39.50
2019-05-01T09:13:34.600Z,42.87
2019-05-01T09:16:05.567Z,41.50
2019-05-01T09:18:36.172Z,41.30
2019-05-01T09:21:06.634Z,41.60
2019-05-01T09:23:39.582Z,49.03
2019-05-01T09:26:21.258Z,41.53
2019-05-01T09:31:45.403Z,39.57
2019-05-01T09:34:19.114Z,40.13
2019-05-01T09:36:49.030Z,38.90
2019-05-01T09:39:21.559Z,38.27
2019-05-01T09:41:52.317Z,37.40
2019-05-01T09:44:22.641Z,36.57
2019-05-01T09:46:59.171Z,37.00
2019-05-01T09:49:30.128Z,37.10
2019-05-01T09:52:14.140Z,36.47
2019-05-01T09:58:27.155Z,36.80
2019-05-01T10:01:00.314Z,38.47
2019-05-01T10:03:33.197Z,37.30
2019-05-01T10:06:03.585Z,36.87
2019-05-01T10:08:34.937Z,36.80
2019-05-01T10:11:07.021Z,37.60
2019-05-01T10:13:37.420Z,35.70
2019-05-01T10:16:08.496Z,38.20
2019-05-01T10:18:39.670Z,34.33
2019-05-01T10:21:14.464Z,32.60
2019-05-01T10:23:47.152Z,31.20
2019-05-01T10:26:23.855Z,32.07
2019-05-01T10:28:53.124Z,31.47
2019-05-01T10:31:31.297Z,31.30
2019-05-01T10:34:12.200Z,30.93
2019-05-01T10:36:49.910Z,29.23
2019-05-01T10:39:20.840Z,30.33
2019-05-01T10:41:51.946Z,30.33
2019-05-01T10:44:22.635Z,30.80
2019-05-01T10:46:53.032Z,31.40
2019-05-01T10:49:23.684Z,30.33
2019-05-01T10:51:54.024Z,31.87
2019-05-01T10:54:24.400Z,28.37
2019-05-01T10:56:58.945Z,28.97
2019-05-01T10:59:27.243Z,24.90
2019-05-01T11:01:59.296Z,27.37
2019-05-01T11:04:29.646Z,28.70
2019-05-01T11:07:00.436Z,26.60
2019-05-01T11:09:31.052Z,26.60
2019-05-01T11:12:02.062Z,25.00
2019-05-01T11:14:32.889Z,24.73
2019-05-01T11:17:03.233Z,22.87
2019-05-01T11:19:53.336Z,25.80
2019-05-01T11:22:23.676Z,24.90
2019-05-01T11:24:54.479Z,25.07
2019-05-01T11:27:25.263Z,25.57
2019-05-01T11:29:55.798Z,25.10
2019-05-01T11:32:27.786Z,25.80
2019-05-01T11:34:59.948Z,25.47
2019-05-01T11:37:38.509Z,24.43
2019-05-01T11:40:20.173Z,25.00
2019-05-01T11:42:50.478Z,22.27
2019-05-01T11:45:20.991Z,23.70
2019-05-01T11:47:51.345Z,22.47
2019-05-01T11:50:22.168Z,22.77
2019-05-01T11:52:53.179Z,19.00
2019-05-01T11:55:23.559Z,20.97
2019-05-01T11:57:53.951Z,20.40
2019-05-01T12:00:25.234Z,20.23
2019-05-01T12:02:56.083Z,21.10
2019-05-01T12:05:27.160Z,19.50
2019-05-01T12:07:57.548Z,18.17
2019-05-01T12:10:47.357Z,19.03
2019-05-01T12:13:18.382Z,17.30
2019-05-01T12:15:50.398Z,17.70
2019-05-01T12:18:21.135Z,17.20
2019-05-01T12:20:51.918Z,18.63
2019-05-01T12:23:22.372Z,17.10
2019-05-01T12:25:52.936Z,15.83
2019-05-01T12:28:23.687Z,18.03
2019-05-01T12:30:54.118Z,17.23
2019-05-01T12:33:24.470Z,16.63
2019-05-01T12:35:56.507Z,16.13
2019-05-01T12:38:27.043Z,16.27
2019-05-01T12:41:17.104Z,16.80
2019-05-01T12:43:51.039Z,18.13
2019-05-01T12:46:35.203Z,18.97
2019-05-01T12:49:06.336Z,17.53
2019-05-01T12:51:37.688Z,15.60
2019-05-01T12:54:12.736Z,16.30
2019-05-01T12:56:53.951Z,17.40
2019-05-01T12:59:24.431Z,16.30
2019-05-01T13:01:55.150Z,14.60
2019-05-01T13:04:25.900Z,16.00
2019-05-01T13:06:57.431Z,15.43
2019-05-01T13:09:28.182Z,14.53
2019-05-01T13:11:58.554Z,17.15
2019-05-01T13:14:28.987Z,13.00
2019-05-01T13:16:59.599Z,14.90
2019-05-01T13:19:30.373Z,15.07
2019-05-01T13:22:01.652Z,14.07
2019-05-01T13:24:33.132Z,14.00
2019-05-01T13:27:08.699Z,13.03
2019-05-01T13:29:46.549Z,13.50
2019-05-01T13:32:21.518Z,14.90
2019-05-01T13:34:52.231Z,15.00
2019-05-01T13:37:22.599Z,15.30
2019-05-01T13:39:53.547Z,14.13
2019-05-01T13:42:23.959Z,15.50
2019-05-01T13:44:54.682Z,15.27
2019-05-01T13:47:25.127Z,14.40
2019-05-01T13:49:55.833Z,12.40
2019-05-01T13:52:26.275Z,13.33
2019-05-01T13:54:57.113Z,12.27
2019-05-01T13:57:27.830Z,13.00
2019-05-01T13:59:58.321Z,12.13
2019-05-01T14:02:28.684Z,11.30
2019-05-01T14:04:59.479Z,11.60
2019-05-01T14:07:29.884Z,11.63
2019-05-01T14:10:01.295Z,12.93
2019-05-01T14:12:32.058Z,11.90
2019-05-01T14:15:02.441Z,12.57
2019-05-01T14:17:32.812Z,11.10
2019-05-01T14:20:21.743Z,11.53
2019-05-01T14:22:53.757Z,10.57
2019-05-01T14:25:24.120Z,10.07
2019-05-01T14:27:54.478Z,10.20
2019-05-01T14:30:24.889Z,10.90
2019-05-01T14:32:56.105Z,9.27
2019-05-01T14:35:26.494Z,8.37
2019-05-01T14:37:57.260Z,7.10
2019-05-01T14:40:27.618Z,7.90
2019-05-01T14:42:58.484Z,8.47
2019-05-01T14:45:28.897Z,8.00
2019-05-01T14:47:59.312Z,7.90
2019-05-01T14:50:29.683Z,7.80
2019-05-01T14:53:00.836Z,7.83
2019-05-01T14:55:32.889Z,9.03
2019-05-01T14:58:03.524Z,13.10
2019-05-01T15:00:33.869Z,10.53
2019-05-01T15:03:04.719Z,7.50
2019-05-01T15:05:36.016Z,7.50
2019-05-01T15:08:06.774Z,6.80
2019-05-01T15:10:37.105Z,8.30
2019-05-01T15:13:09.083Z,8.40
2019-05-01T15:15:41.144Z,7.30
2019-05-01T15:18:13.131Z,7.43
2019-05-01T15:20:46.461Z,6.70
2019-05-01T15:23:15.549Z,5.57
2019-05-01T15:25:45.898Z,6.80
2019-05-01T15:28:16.321Z,6.10
2019-05-01T15:30:47.013Z,5.43
2019-05-01T15:33:17.849Z,5.70
2019-05-01T15:35:48.551Z,6.90
2019-05-01T15:38:19.276Z,5.70
2019-05-01T15:41:03.326Z,6.60
2019-05-01T15:43:38.548Z,6.00
2019-05-01T15:46:08.969Z,6.30
2019-05-01T15:48:39.678Z,5.30
2019-05-01T15:51:10.120Z,5.30
2019-05-01T15:53:41.526Z,5.73
2019-05-01T15:56:12.021Z,5.20
2019-05-01T15:58:42.466Z,5.33
2019-05-01T16:01:13.262Z,5.70
2019-05-01T16:03:43.991Z,4.70
2019-05-01T16:06:14.666Z,5.57
2019-05-01T16:08:45.237Z,4.30
2019-05-01T16:11:32.763Z,4.70
2019-05-01T16:14:03.674Z,4.20
2019-05-01T16:16:34.424Z,4.10
2019-05-01T16:19:04.766Z,4.50
2019-05-01T16:21:35.519Z,3.53
2019-05-01T16:24:05.862Z,4.73
2019-05-01T16:26:36.228Z,4.80
2019-05-01T16:29:06.579Z,3.50
2019-05-01T16:31:37.319Z,4.37
2019-05-01T16:34:07.727Z,4.03
2019-05-01T16:36:38.089Z,4.27
2019-05-01T16:39:13.113Z,3.27
2019-05-01T16:41:45.152Z,3.77
2019-05-01T16:44:15.942Z,3.23
2019-05-01T16:46:46.630Z,3.60
2019-05-01T16:49:17.011Z,3.33
2019-05-01T16:51:47.357Z,2.97
2019-05-01T16:54:17.723Z,4.67
2019-05-01T16:56:48.150Z,3.27
2019-05-01T16:59:18.904Z,3.37
2019-05-01T17:01:53.553Z,2.80
2019-05-01T17:04:34.368Z,3.30
2019-05-01T17:07:09.818Z,3.00
2019-05-01T17:09:44.916Z,3.33
2019-05-01T17:12:17.256Z,3.70
2019-05-01T17:14:48.025Z,3.60
2019-05-01T17:17:20.408Z,4.03
2019-05-01T17:19:51.011Z,4.33
2019-05-01T17:22:21.399Z,3.70
2019-05-01T17:24:51.798Z,3.97
2019-05-01T17:27:22.191Z,3.80
2019-05-01T17:29:52.908Z,4.70
2019-05-01T17:32:23.360Z,4.07
2019-05-01T17:34:54.089Z,3.90
2019-05-01T17:37:24.480Z,3.70
2019-05-01T17:39:55.211Z,3.73
2019-05-01T17:42:25.641Z,3.00
2019-05-01T17:44:59.564Z,3.87
2019-05-01T17:47:28.046Z,3.30
2019-05-01T17:49:58.442Z,3.43
2019-05-01T17:52:28.817Z,3.20
2019-05-01T17:55:01.348Z,3.47
2019-05-01T17:57:33.849Z,3.27
2019-05-01T18:00:07.970Z,3.50
2019-05-01T18:02:40.389Z,10.20
2019-05-01T18:05:18.121Z,4.20
2019-05-01T18:07:48.540Z,3.17
2019-05-01T18:10:19.253Z,3.40
2019-05-01T18:12:49.587Z,3.57
2019-05-01T18:15:20.336Z,3.03
2019-05-01T18:17:51.188Z,3.27
2019-05-01T18:20:21.963Z,3.40
2019-05-01T18:22:56.781Z,3.40
2019-05-01T18:25:33.083Z,3.60
2019-05-01T18:28:06.382Z,4.07
2019-05-01T18:30:41.489Z,3.70
2019-05-01T18:33:11.830Z,3.47
2019-05-01T18:35:44.871Z,3.33
2019-05-01T18:38:16.269Z,3.57
2019-05-01T18:40:48.573Z,4.13
2019-05-01T18:43:18.892Z,3.80
2019-05-01T18:45:51.609Z,3.10
2019-05-01T18:48:22.260Z,3.80
2019-05-01T18:50:54.642Z,3.43
2019-05-01T18:53:24.960Z,4.33
2019-05-01T18:55:55.329Z,5.10
2019-05-01T18:58:26.061Z,5.60
2019-05-01T19:00:56.820Z,6.83
2019-05-01T19:03:29.813Z,9.50
2019-05-01T19:05:59.568Z,11.00
2019-05-01T19:08:31.096Z,5.60
2019-05-01T19:11:11.854Z,5.03
2019-05-01T19:13:33.942Z,10.00
2019-05-01T19:16:08.307Z,10.50
2019-05-01T19:18:37.401Z,10.20
2019-05-01T19:21:08.329Z,8.23
2019-05-01T19:23:39.087Z,7.97
2019-05-01T19:26:09.523Z,6.40
2019-05-01T19:28:40.362Z,12.50
2019-05-01T19:31:10.757Z,9.10
2019-05-01T19:33:41.920Z,12.60
2019-05-01T19:36:12.827Z,11.47
2019-05-01T19:38:43.512Z,10.90
2019-05-01T19:41:14.456Z,8.50
2019-05-01T19:43:44.994Z,9.70
2019-05-01T19:46:15.457Z,10.20
2019-05-01T19:48:50.717Z,7.97
2019-05-01T19:51:19.196Z,24.90
2019-05-01T19:53:51.830Z,11.63
2019-05-01T19:56:22.848Z,14.57
2019-05-01T19:59:11.774Z,11.33
2019-05-01T20:01:44.589Z,18.17
2019-05-01T20:04:15.141Z,7.80
2019-05-01T20:06:46.479Z,9.60
2019-05-01T20:09:17.492Z,6.73
2019-05-01T20:11:47.833Z,9.53
2019-05-01T20:14:18.217Z,13.03
2019-05-01T20:16:50.929Z,10.43
2019-05-01T20:19:21.209Z,16.40
2019-05-01T20:21:52.542Z,10.00
2019-05-01T20:24:23.777Z,8.03
2019-05-01T20:26:54.735Z,9.67
2019-05-01T20:29:27.461Z,8.93
2019-05-01T20:31:57.920Z,11.20
2019-05-01T20:34:28.285Z,9.73
2019-05-01T20:36:58.978Z,11.80
2019-05-01T20:39:29.339Z,8.20
2019-05-01T20:42:00.550Z,9.60
2019-05-01T20:44:30.923Z,33.87
2019-05-01T20:47:02.525Z,11.43
2019-05-01T20:49:36.421Z,28.80
2019-05-01T20:52:07.758Z,23.70
2019-05-01T20:54:38.875Z,29.57
2019-05-01T20:57:20.747Z,11.50
2019-05-01T20:59:48.257Z,9.80
2019-05-01T21:02:18.398Z,7.70
2019-05-01T21:04:56.837Z,9.70
2019-05-01T21:07:31.388Z,8.00
2019-05-01T21:10:03.145Z,8.30
2019-05-01T21:12:33.881Z,9.93
2019-05-01T21:15:06.658Z,8.23
2019-05-01T21:17:37.042Z,8.57
2019-05-01T21:20:07.583Z,8.67
2019-05-01T21:22:37.950Z,9.43
2019-05-01T21:25:08.331Z,10.97
2019-05-01T21:27:38.755Z,11.17
2019-05-01T21:30:09.902Z,11.87
2019-05-01T21:32:41.011Z,11.13
2019-05-01T21:35:13.765Z,11.47
2019-05-01T21:37:44.247Z,10.10
2019-05-01T21:40:15.064Z,10.13
2019-05-01T21:42:47.377Z,9.50
2019-05-01T21:45:17.456Z,8.23
2019-05-01T21:47:47.840Z,8.97
2019-05-01T21:50:22.799Z,8.30
2019-05-01T21:52:50.824Z,7.57
2019-05-01T21:55:21.192Z,7.00
2019-05-01T21:57:51.590Z,7.50
2019-05-01T22:00:24.896Z,7.17
2019-05-01T22:02:54.451Z,8.03
2019-05-01T22:05:25.210Z,8.10
2019-05-01T22:07:58.804Z,8.40
2019-05-01T22:10:28.524Z,8.77
2019-05-01T22:12:59.455Z,8.97
2019-05-01T22:15:34.852Z,9.20
2019-05-01T22:18:16.442Z,9.40
2019-05-01T22:20:48.835Z,9.10
2019-05-01T22:23:26.785Z,9.47
2019-05-01T22:25:59.343Z,9.40
2019-05-01T22:28:31.353Z,9.70
2019-05-01T22:31:21.727Z,9.00
2019-05-01T22:33:53.727Z,10.30
2019-05-01T22:36:24.715Z,9.43
2019-05-01T22:38:55.128Z,9.27
2019-05-01T22:41:25.536Z,9.97
2019-05-01T22:43:55.907Z,10.37
2019-05-01T22:46:27.900Z,10.63
2019-05-01T22:48:58.671Z,11.53
2019-05-01T22:51:29.049Z,11.70
2019-05-01T22:53:59.860Z,11.30
2019-05-01T22:56:30.207Z,12.87
2019-05-01T22:59:00.925Z,12.20
2019-05-01T23:01:31.290Z,13.20
2019-05-01T23:04:03.333Z,13.53
2019-05-01T23:06:37.206Z,12.90
2019-05-01T23:09:06.962Z,13.67
2019-05-01T23:11:39.385Z,13.60
2019-05-01T23:14:10.224Z,14.00
2019-05-01T23:16:42.613Z,13.70
2019-05-01T23:19:13.288Z,16.97
2019-05-01T23:21:45.809Z,13.67
2019-05-01T23:24:15.959Z,14.73
2019-05-01T23:26:48.031Z,13.90
2019-05-01T23:29:18.774Z,14.40
2019-05-01T23:31:49.498Z,13.20
2019-05-01T23:34:21.180Z,14.03
2019-05-01T23:36:52.287Z,14.50
2019-05-01T23:39:22.996Z,16.93
2019-05-01T23:41:53.514Z,15.10
2019-05-01T23:44:23.824Z,15.40
2019-05-01T23:46:54.244Z,15.50
2019-05-01T23:49:24.709Z,15.10
2019-05-01T23:51:58.711Z,14.80
2019-05-01T23:54:27.459Z,16.20
2019-05-01T23:56:58.313Z,16.27
2019-05-01T23:59:28.732Z,14.80
